Nearby METAR Reports


KPAM - Tyndall AFB, FL, USA
Distance from station: SSE 4mi, 7km
Updated: Sun, 25-Feb-2018 3:01am CST
Mostly cloudy
Mostly cloudy
 Wind from SSE
Wind: SSE 7 mph , 11 km/h
Temperature: 70°F , 21°C
Dew Point: 70°F , 21°C
Humidity: 100%
Barometer: 30.08 inHg , 1018.6 hPa
Clouds: Mostly cloudy
Visibility: 10 miles , 16 km
Cloud details: Mostly cloudy 700 ft
2018/02/25 09:01 KPAM 250901Z AUTO 15006KT 10SM BKN007 21/21 A3008 RMK AO2 BKN V SCT SLP189 $
KECP - Panama City Beach, FL, USA
Distance from station: NW 20mi, 32km
Updated: Sun, 25-Feb-2018 2:53am CST
Mist, Overcast
Mist, Overcast
 Wind from SE
Wind: SE 7 mph , 11 km/h
Temperature: 70°F , 21°C
Dew Point: 70°F , 21°C
Humidity: 100%
Barometer: 30.07 inHg , 1018.3 hPa
Summary: Mist
Clouds: Overcast
Visibility: 5 miles , 8 km
Cloud details: Overcast 300 ft
2018/02/25 08:53 KECP 250853Z AUTO 14006KT 5SM BR OVC003 21/21 A3007 RMK AO2 CIG 002V007 SLP194 T02110206 56010
 
KAAF - Apalachicola, FL, USA
Distance from station: SE 43mi, 69km
Updated: Sun, 25-Feb-2018 2:53am CST
Mist, Overcast
Mist, Overcast
 Wind from SSE
Wind: SSE 7 mph , 11 km/h
Temperature: 70°F , 21°C
Dew Point: 70°F , 21°C
Humidity: 100%
Barometer: 30.09 inHg , 1019 hPa
Summary: Mist
Clouds: Overcast
Visibility: 4 miles , 6 km
Cloud details: Overcast 200 ft
2018/02/25 08:53 KAAF 250853Z AUTO 15006KT 4SM BR OVC002 21/21 A3009 RMK AO2 SLP188 T02110211 56015
KMAI - Marianna, FL, USA
Distance from station: NNE 55mi, 88km
Updated: Sun, 25-Feb-2018 2:53am CST
Fog, Overcast
Fog, Overcast
 Wind from S
Wind: S 5 mph , 7 km/h
Temperature: 66°F , 19°C
Dew Point: 66°F , 19°C
Humidity: 100%
Barometer: 30.08 inHg , 1018.6 hPa
Summary: Fog
Clouds: Overcast
Visibility: 1/2 mile , 2 km
Cloud details: Overcast 200 ft
2018/02/25 08:53 KMAI 250853Z AUTO 19004KT 1/2SM FG VV002 19/19 A3008 RMK AO2 SLP186 T01890189 58006
 
KDTS - Destin, FL, USA
Distance from station: WNW 56mi, 90km
Updated: Sun, 25-Feb-2018 2:53am CST
Mostly cloudy
Mostly cloudy
 Wind from S
Wind: S 5 mph , 7 km/h
Temperature: 73°F , 23°C
Dew Point: 70°F , 21°C
Humidity: 89%
Barometer: 30.06 inHg , 1017.9 hPa
Clouds: Mostly cloudy
Visibility: 9 miles , 14 km
Cloud details: Partly cloudy 500 ft
Mostly cloudy 1400 ft
2018/02/25 08:53 KDTS 250853Z AUTO 18004KT 9SM SCT005 BKN014 23/21 A3006 RMK AO2 SLP179 T02280206 58012
KVPS - Valpariso-Eglin AFB, FL, USA
Distance from station: WNW 60mi, 97km
Updated: Sun, 25-Feb-2018 2:56am CST
Overcast
Overcast
 Wind from S
Wind: S 7 mph , 11 km/h
Temperature: 72°F , 22°C
Dew Point: 72°F , 22°C
Humidity: 100%
Barometer: 30.05 inHg , 1017.6 hPa
Clouds: Overcast
Visibility: 10 miles , 16 km
Cloud details: Overcast 600 ft
2018/02/25 08:56 KVPS 250856Z 18006KT 10SM OVC006 22/22 A3005 RMK AO2A SLP182 T02190219 58010 $
 
KEGI - Duke Field, FL, USA
Distance from station: WNW 66mi, 105km
Updated: Sun, 25-Feb-2018 3:10am CST
Mostly cloudy
Mostly cloudy
 Wind from SSW
Wind: SSW 9 mph , 15 km/h
Temperature: 72°F , 22°C
Dew Point: 70°F , 21°C
Humidity: 94%
Barometer: 30.06 inHg , 1017.9 hPa
Clouds: Mostly cloudy
Visibility: 10 miles , 16 km
Cloud details: Partly cloudy 800 ft
Mostly cloudy 1300 ft
2018/02/25 09:10 KEGI 250910Z AUTO 20008KT 10SM SCT008 BKN013 22/21 A3006 RMK AO2 CIG 008V013 SLP179 $
KHRT - Hurlburt Field, FL, USA
Distance from station: WNW 67mi, 108km
Updated: Sun, 25-Feb-2018 2:55am CST
Mist, Overcast
Mist, Overcast
 Wind from SSE
Wind: SSE 5 mph , 7 km/h
Temperature: 70°F , 21°C
Dew Point: 70°F , 21°C
Humidity: 100%
Barometer: 30.05 inHg , 1017.6 hPa
Summary: Mist
Clouds: Overcast
Visibility: 5 miles , 8 km
Cloud details: Overcast 200 ft
2018/02/25 08:55 KHRT 250855Z 16004KT 5SM BR OVC002 21/21 A3005 RMK AO2A SLP178 T02120208 58010 $
 
KCEW - Crestview, FL, USA
Distance from station: NW 72mi, 115km
Updated: Sun, 25-Feb-2018 3:10am CST
Mostly cloudy
Mostly cloudy
 Wind from S
Wind: S 3 mph , 6 km/h
Temperature: 70°F , 21°C
Dew Point: 68°F , 20°C
Humidity: 94%
Barometer: 30.07 inHg , 1018.3 hPa
Clouds: Mostly cloudy
Visibility: 8 miles , 13 km
Cloud details: Few Clouds 1000 ft
Mostly cloudy 1600 ft
2018/02/25 09:10 KCEW 250910Z AUTO 19003KT 8SM FEW010 BKN016 21/20 A3007 RMK AO2 T02110200 $
KTLH - Tallahassee, FL, USA
Distance from station: ENE 77mi, 123km
Updated: Sun, 25-Feb-2018 2:53am CST
Fog, Overcast
Fog, Overcast
 Wind from SE
Wind: SE 3 mph , 6 km/h
Temperature: 64°F , 18°C
Dew Point: 64°F , 18°C
Humidity: 100%
Barometer: 30.10 inHg , 1019.3 hPa
Summary: Fog
Clouds: Overcast
Visibility: 1/2 mile , 2 km
Cloud details: Overcast 200 ft
2018/02/25 08:53 KTLH 250853Z AUTO 14003KT 1/2SM FG VV002 18/18 A3010 RMK AO2 SLP190 T01830183 55006
 
KOZR - Cairns AAF, AL, USA
Distance from station: N 81mi, 130km
Updated: Sun, 25-Feb-2018 2:56am CST
Overcast
Overcast
 Wind from S
Wind: S 5 mph , 7 km/h
Temperature: 68°F , 20°C
Dew Point: 66°F , 19°C
Humidity: 94%
Barometer: 30.07 inHg , 1018.3 hPa
Clouds: Overcast
Visibility: 10 miles , 16 km
Cloud details: Overcast 800 ft
2018/02/25 08:56 KOZR 250856Z AUTO 19004KT 10SM OVC008 20/19 A3007 RMK AO2 SLP182 T01990192 58009 $
KDHN - Dothan, AL, USA
Distance from station: N 83mi, 134km
Updated: Sun, 25-Feb-2018 2:53am CST
Overcast
Overcast
 Wind from SSW
Wind: SSW 8 mph , 13 km/h
Temperature: 70°F , 21°C
Dew Point: 66°F , 19°C
Humidity: 88%
Barometer: 30.10 inHg , 1019.3 hPa
Clouds: Overcast
Visibility: 10 miles , 16 km
Cloud details: Overcast 700 ft
2018/02/25 08:53 KDHN 250853Z AUTO 20007KT 10SM OVC007 21/19 A3010 RMK AO2 CIG 006V012 SLP189 T02060189 58011